createdAt,value
2024-03-26T00:00:00.626Z,0.0
2024-03-26T00:05:00.572Z,0.0
2024-03-26T00:10:00.536Z,0.0
2024-03-26T00:15:00.844Z,0.0
2024-03-26T00:20:00.526Z,0.0
2024-03-26T00:25:00.540Z,0.0
2024-03-26T00:30:00.562Z,0.0
2024-03-26T00:35:00.515Z,0.0
2024-03-26T00:40:00.544Z,0.0
2024-03-26T00:45:00.583Z,0.0
2024-03-26T00:50:00.635Z,0.0
2024-03-26T00:55:00.513Z,0.0
2024-03-26T01:00:00.629Z,0.0
2024-03-26T01:05:00.529Z,0.0
2024-03-26T01:10:00.503Z,0.0
2024-03-26T01:15:00.654Z,0.0
2024-03-26T01:20:00.518Z,0.0
2024-03-26T01:25:00.526Z,0.0
2024-03-26T01:30:00.555Z,0.0
2024-03-26T01:35:00.538Z,0.0
2024-03-26T01:40:00.561Z,0.0
2024-03-26T01:45:00.570Z,0.0
2024-03-26T01:50:00.570Z,0.0
2024-03-26T01:55:00.505Z,0.0
2024-03-26T02:00:00.531Z,0.0
2024-03-26T02:05:00.541Z,0.0
2024-03-26T02:10:00.519Z,0.0
2024-03-26T02:15:00.530Z,0.0
2024-03-26T02:20:00.512Z,0.0
2024-03-26T02:25:00.580Z,0.0
2024-03-26T02:30:00.537Z,0.0
2024-03-26T02:35:00.556Z,0.0
2024-03-26T02:40:00.557Z,0.0
2024-03-26T02:45:00.518Z,0.0
2024-03-26T02:50:00.536Z,0.0
2024-03-26T02:55:00.529Z,0.0
2024-03-26T03:00:00.590Z,0.0
2024-03-26T03:05:00.516Z,0.0
2024-03-26T03:10:00.553Z,0.0
2024-03-26T03:15:00.578Z,0.0
2024-03-26T03:20:00.493Z,0.0
2024-03-26T03:25:00.532Z,0.0
2024-03-26T03:30:00.530Z,0.0
2024-03-26T03:35:00.600Z,0.0
2024-03-26T03:40:00.474Z,0.0
2024-03-26T03:45:00.538Z,0.0
2024-03-26T03:50:00.567Z,0.0
2024-03-26T03:55:00.530Z,0.0
2024-03-26T04:00:00.511Z,0.0
2024-03-26T04:05:00.525Z,0.0
2024-03-26T04:10:00.469Z,0.0
2024-03-26T04:15:00.545Z,0.0
2024-03-26T04:20:00.496Z,0.0
2024-03-26T04:25:00.536Z,0.0
2024-03-26T04:30:00.555Z,0.0
2024-03-26T04:35:00.540Z,0.0
2024-03-26T04:40:00.474Z,0.0
2024-03-26T04:45:00.549Z,0.0
2024-03-26T04:50:00.669Z,0.0
2024-03-26T04:55:00.581Z,0.0
2024-03-26T05:00:00.488Z,0.0
2024-03-26T05:05:00.508Z,0.0
2024-03-26T05:10:00.526Z,1.8
2024-03-26T05:15:00.534Z,0.0
2024-03-26T05:20:00.519Z,1.8
2024-03-26T05:25:00.535Z,3.2
2024-03-26T05:30:00.566Z,0.0
2024-03-26T05:35:00.527Z,0.0
2024-03-26T05:40:00.529Z,2.5
2024-03-26T05:45:00.631Z,2.9
2024-03-26T05:50:00.554Z,6.5
2024-03-26T05:55:00.531Z,2.9
2024-03-26T06:00:00.564Z,5.4
2024-03-26T06:05:00.517Z,6.1
2024-03-26T06:10:00.500Z,3.2
2024-03-26T06:15:00.524Z,3.2
2024-03-26T06:20:00.528Z,8.3
2024-03-26T06:25:00.530Z,5.0
2024-03-26T06:30:00.540Z,4.7
2024-03-26T06:35:00.553Z,13.3
2024-03-26T06:40:00.489Z,8.3
2024-03-26T06:45:00.608Z,9.0
2024-03-26T06:50:00.547Z,3.2
2024-03-26T06:55:00.564Z,4.0
2024-03-26T07:00:00.596Z,11.2
2024-03-26T07:05:00.587Z,5.4
2024-03-26T07:10:00.688Z,14.8
2024-03-26T07:15:00.571Z,7.2
2024-03-26T07:20:00.692Z,4.3
2024-03-26T07:25:00.542Z,7.6
2024-03-26T07:30:00.635Z,9.0
2024-03-26T07:35:00.610Z,4.7
2024-03-26T07:40:00.685Z,3.6
2024-03-26T07:45:00.935Z,8.3
2024-03-26T07:50:00.936Z,10.1
2024-03-26T07:55:00.592Z,2.2
2024-03-26T08:00:01.102Z,0.0
2024-03-26T08:05:00.609Z,11.9
2024-03-26T08:10:00.571Z,13.7
2024-03-26T08:15:00.846Z,11.9
2024-03-26T08:20:00.582Z,9.0
2024-03-26T08:25:00.577Z,6.5
2024-03-26T08:30:00.737Z,15.5
2024-03-26T08:35:00.572Z,15.8
2024-03-26T08:40:00.547Z,17.6
2024-03-26T08:45:00.733Z,15.1
2024-03-26T08:50:00.518Z,9.0
2024-03-26T08:55:00.581Z,9.4
2024-03-26T09:00:00.772Z,9.7
2024-03-26T09:05:00.562Z,4.0
2024-03-26T09:10:00.507Z,7.2
2024-03-26T09:15:00.843Z,10.8
2024-03-26T09:20:00.503Z,14.0
2024-03-26T09:25:00.550Z,11.5
2024-03-26T09:30:00.606Z,19.4
2024-03-26T09:35:00.553Z,25.2
2024-03-26T09:40:00.594Z,9.0
2024-03-26T09:45:07.826Z,17.6
2024-03-26T09:50:00.552Z,18.0
2024-03-26T09:55:00.586Z,16.9
2024-03-26T10:00:00.694Z,9.7
2024-03-26T10:05:00.535Z,18.7
2024-03-26T10:10:00.533Z,9.4
2024-03-26T10:15:00.604Z,22.0
2024-03-26T10:20:00.508Z,17.3
2024-03-26T10:25:00.546Z,10.1
2024-03-26T10:30:00.687Z,6.1
2024-03-26T10:35:00.542Z,29.2
2024-03-26T10:40:00.510Z,18.0
2024-03-26T10:45:00.668Z,23.0
2024-03-26T10:50:00.570Z,14.0
2024-03-26T10:55:00.532Z,11.9
2024-03-26T11:00:00.632Z,18.4
2024-03-26T11:05:00.574Z,15.1
2024-03-26T11:10:00.523Z,15.1
2024-03-26T11:15:00.648Z,11.9
2024-03-26T11:20:00.554Z,15.8
2024-03-26T11:25:00.541Z,14.4
2024-03-26T11:30:00.724Z,21.2
2024-03-26T11:35:00.560Z,14.0
2024-03-26T11:40:00.527Z,24.1
2024-03-26T11:45:00.658Z,14.8
2024-03-26T11:50:00.504Z,14.8
2024-03-26T11:55:00.567Z,21.2
2024-03-26T12:00:00.763Z,12.6
2024-03-26T12:05:00.578Z,20.9
2024-03-26T12:10:00.475Z,20.5
2024-03-26T12:15:00.627Z,11.2
2024-03-26T12:20:00.509Z,14.4
2024-03-26T12:25:00.537Z,20.2
2024-03-26T12:30:00.592Z,16.9
2024-03-26T12:35:00.539Z,15.5
2024-03-26T12:40:00.563Z,10.1
2024-03-26T12:45:00.604Z,20.5
2024-03-26T12:50:05.409Z,16.6
2024-03-26T12:55:00.536Z,19.1
2024-03-26T13:00:00.520Z,15.8
2024-03-26T13:05:00.577Z,6.1
2024-03-26T13:10:00.506Z,15.5
2024-03-26T13:15:00.547Z,15.8
2024-03-26T13:20:00.514Z,15.8
2024-03-26T13:25:00.510Z,18.4
2024-03-26T13:30:00.548Z,13.7
2024-03-26T13:35:00.557Z,14.8
2024-03-26T13:40:00.634Z,11.9
2024-03-26T13:45:00.573Z,7.6
2024-03-26T13:50:00.581Z,12.2
2024-03-26T13:55:00.619Z,15.8
2024-03-26T14:00:00.557Z,13.0
2024-03-26T14:05:00.581Z,16.2
2024-03-26T14:10:00.525Z,14.0
2024-03-26T14:15:00.563Z,17.3
2024-03-26T14:20:00.543Z,16.2
2024-03-26T14:25:00.531Z,11.2
2024-03-26T14:30:00.524Z,10.4
2024-03-26T14:35:00.545Z,17.3
2024-03-26T14:40:00.541Z,16.6
2024-03-26T14:45:00.608Z,14.8
2024-03-26T14:50:00.549Z,24.8
2024-03-26T14:55:00.561Z,18.4
2024-03-26T15:00:00.556Z,17.3
2024-03-26T15:05:00.525Z,22.7
2024-03-26T15:10:00.499Z,6.1
2024-03-26T15:15:00.516Z,12.2
2024-03-26T15:20:00.498Z,14.4
2024-03-26T15:25:00.533Z,16.2
2024-03-26T15:30:00.529Z,7.2
2024-03-26T15:35:00.534Z,14.8
2024-03-26T15:40:00.554Z,11.2
2024-03-26T15:45:00.528Z,11.2
2024-03-26T15:50:00.620Z,14.0
2024-03-26T15:55:00.594Z,12.6
2024-03-26T16:00:00.502Z,15.8
2024-03-26T16:05:00.537Z,16.9
2024-03-26T16:15:00.537Z,10.8
2024-03-26T16:20:00.587Z,5.0
2024-03-26T16:25:00.541Z,5.8
2024-03-26T16:30:00.562Z,10.1
2024-03-26T16:35:00.642Z,5.0
2024-03-26T16:40:00.528Z,4.7
2024-03-26T16:45:03.780Z,5.0
2024-03-26T16:50:00.576Z,5.8
2024-03-26T16:55:00.581Z,6.1
2024-03-26T17:00:00.504Z,7.9
2024-03-26T17:05:00.534Z,4.7
2024-03-26T17:10:00.621Z,8.3
2024-03-26T17:15:00.608Z,9.7
2024-03-26T17:20:00.536Z,4.0
2024-03-26T17:25:00.508Z,6.8
2024-03-26T17:30:00.598Z,2.5
2024-03-26T17:35:00.500Z,4.7
2024-03-26T17:40:00.648Z,5.8
2024-03-26T17:45:00.571Z,2.5
2024-03-26T17:50:00.562Z,2.2
2024-03-26T17:55:00.515Z,3.2
2024-03-26T18:00:00.583Z,3.6
2024-03-26T18:05:00.508Z,3.2
2024-03-26T18:10:00.527Z,5.4
2024-03-26T18:15:00.613Z,4.7
2024-03-26T18:20:00.591Z,2.5
2024-03-26T18:25:00.619Z,5.0
2024-03-26T18:30:00.523Z,5.8
2024-03-26T18:35:00.542Z,5.8
2024-03-26T18:40:00.526Z,2.2
2024-03-26T18:45:01.117Z,6.8
2024-03-26T18:50:00.510Z,3.6
2024-03-26T18:55:00.533Z,5.8
2024-03-26T19:00:00.615Z,2.9
2024-03-26T19:05:00.544Z,0.0
2024-03-26T19:10:00.489Z,6.5
2024-03-26T19:15:00.612Z,5.8
2024-03-26T19:20:00.607Z,6.1
2024-03-26T19:25:00.584Z,7.6
2024-03-26T19:30:00.664Z,8.3
2024-03-26T19:35:00.576Z,3.6
2024-03-26T19:40:00.541Z,6.5
2024-03-26T19:45:00.588Z,2.9
2024-03-26T19:50:00.578Z,0.0
2024-03-26T19:55:00.636Z,3.6
2024-03-26T20:00:00.547Z,0.0
2024-03-26T20:05:00.529Z,9.0
2024-03-26T20:10:00.542Z,1.4
2024-03-26T20:15:00.544Z,0.0
2024-03-26T20:20:00.594Z,2.2
2024-03-26T20:25:00.658Z,2.9
2024-03-26T20:30:00.511Z,2.2
2024-03-26T20:35:00.579Z,2.2
2024-03-26T20:40:00.539Z,2.5
2024-03-26T20:45:00.535Z,2.5
2024-03-26T20:50:05.289Z,4.0
2024-03-26T20:55:00.538Z,5.0
2024-03-26T21:00:00.567Z,4.0
2024-03-26T21:05:00.536Z,2.2
2024-03-26T21:10:00.525Z,1.4
2024-03-26T21:20:00.556Z,1.8
2024-03-26T21:25:00.532Z,5.8
2024-03-26T21:30:00.541Z,5.0
2024-03-26T21:35:00.741Z,2.9
2024-03-26T21:40:00.522Z,2.5
2024-03-26T21:45:00.525Z,2.2
2024-03-26T21:50:00.500Z,5.0
2024-03-26T21:55:00.553Z,5.0
2024-03-26T22:00:00.633Z,3.6
2024-03-26T22:05:00.519Z,7.2
2024-03-26T22:10:00.573Z,0.0
2024-03-26T22:15:00.470Z,2.5
2024-03-26T22:20:00.525Z,0.0
2024-03-26T22:25:00.618Z,0.0
2024-03-26T22:30:00.476Z,0.0
2024-03-26T22:35:00.533Z,0.0
2024-03-26T22:40:00.533Z,2.5
2024-03-26T22:45:00.574Z,0.0
2024-03-26T22:50:00.597Z,5.4
2024-03-26T22:55:00.615Z,1.4
2024-03-26T23:00:00.658Z,2.2
2024-03-26T23:05:00.891Z,1.4
2024-03-26T23:10:00.524Z,0.0
2024-03-26T23:15:00.540Z,0.0
2024-03-26T23:20:00.555Z,0.0
2024-03-26T23:25:00.537Z,0.0
2024-03-26T23:30:00.525Z,0.0
2024-03-26T23:35:00.527Z,0.0
2024-03-26T23:40:00.540Z,0.0
2024-03-26T23:45:00.518Z,0.0
2024-03-26T23:50:00.482Z,0.0
2024-03-26T23:55:00.501Z,0.0
